sensor_id;sensor_type;location;lat;lon;timestamp;pressure;altitude;pressure_sealevel;temperature;humidity
35519;BME280;21627;48.216;16.482;2023-09-08T00:00:29;100414.81;;;15.36;100.00
35519;BME280;21627;48.216;16.482;2023-09-08T00:02:56;100430.44;;;15.38;100.00
35519;BME280;21627;48.216;16.482;2023-09-08T00:05:24;100426.97;;;15.38;100.00
35519;BME280;21627;48.216;16.482;2023-09-08T00:07:51;100419.19;;;15.33;100.00
35519;BME280;21627;48.216;16.482;2023-09-08T00:10:18;100418.34;;;15.31;100.00
35519;BME280;21627;48.216;16.482;2023-09-08T00:12:45;100424.44;;;15.27;100.00
35519;BME280;21627;48.216;16.482;2023-09-08T00:15:12;100437.50;;;15.24;100.00
35519;BME280;21627;48.216;16.482;2023-09-08T00:17:39;100427.13;;;15.19;100.00
35519;BME280;21627;48.216;16.482;2023-09-08T00:20:07;100427.13;;;15.19;100.00
35519;BME280;21627;48.216;16.482;2023-09-08T00:22:38;100426.25;;;15.20;100.00
35519;BME280;21627;48.216;16.482;2023-09-08T00:25:06;100421.94;;;15.16;100.00
35519;BME280;21627;48.216;16.482;2023-09-08T00:27:33;100416.78;;;15.10;100.00
35519;BME280;21627;48.216;16.482;2023-09-08T00:30:00;100416.78;;;15.10;100.00
35519;BME280;21627;48.216;16.482;2023-09-08T00:32:29;100411.63;;;15.04;100.00
35519;BME280;21627;48.216;16.482;2023-09-08T00:34:56;100410.75;;;15.05;100.00
35519;BME280;21627;48.216;16.482;2023-09-08T00:37:24;100409.91;;;15.03;100.00
35519;BME280;21627;48.216;16.482;2023-09-08T00:39:51;100414.25;;;15.02;100.00
35519;BME280;21627;48.216;16.482;2023-09-08T00:42:18;100415.09;;;15.01;100.00
35519;BME280;21627;48.216;16.482;2023-09-08T00:44:45;100405.59;;;14.94;100.00
35519;BME280;21627;48.216;16.482;2023-09-08T00:47:12;100409.97;;;14.95;100.00
35519;BME280;21627;48.216;16.482;2023-09-08T00:49:39;100415.16;;;14.95;100.00
35519;BME280;21627;48.216;16.482;2023-09-08T00:52:07;100415.19;;;14.92;100.00
35519;BME280;21627;48.216;16.482;2023-09-08T00:54:34;100408.28;;;14.88;100.00
35519;BME280;21627;48.216;16.482;2023-09-08T00:57:02;100412.59;;;14.89;100.00
35519;BME280;21627;48.216;16.482;2023-09-08T00:59:32;100413.50;;;14.85;100.00
35519;BME280;21627;48.216;16.482;2023-09-08T01:02:01;100405.75;;;14.76;100.00
35519;BME280;21627;48.216;16.482;2023-09-08T01:04:28;100407.47;;;14.78;100.00
35519;BME280;21627;48.216;16.482;2023-09-08T01:06:56;100397.06;;;14.74;100.00
35519;BME280;21627;48.216;16.482;2023-09-08T01:09:24;100389.34;;;14.64;100.00
35519;BME280;21627;48.216;16.482;2023-09-08T01:11:51;100407.50;;;14.69;100.00
35519;BME280;21627;48.216;16.482;2023-09-08T01:14:19;100403.22;;;14.65;100.00
35519;BME280;21627;48.216;16.482;2023-09-08T01:16:46;100389.34;;;14.64;100.00
35519;BME280;21627;48.216;16.482;2023-09-08T01:19:14;100392.84;;;14.57;100.00
35519;BME280;21627;48.216;16.482;2023-09-08T01:25:21;100398.06;;;14.49;100.00
35519;BME280;21627;48.216;16.482;2023-09-08T01:27:55;100392.91;;;14.45;100.00
35519;BME280;21627;48.216;16.482;2023-09-08T01:30:28;100397.25;;;14.41;100.00
35519;BME280;21627;48.216;16.482;2023-09-08T01:32:59;100395.50;;;14.40;100.00
35519;BME280;21627;48.216;16.482;2023-09-08T01:35:27;100391.19;;;14.36;100.00
35519;BME280;21627;48.216;16.482;2023-09-08T01:37:55;100393.81;;;14.33;100.00
35519;BME280;21627;48.216;16.482;2023-09-08T01:40:22;100397.28;;;14.31;100.00
35519;BME280;21627;48.216;16.482;2023-09-08T01:42:49;100397.31;;;14.29;100.00
35519;BME280;21627;48.216;16.482;2023-09-08T01:45:16;100393.00;;;14.26;100.00
35519;BME280;21627;48.216;16.482;2023-09-08T01:47:44;100379.97;;;14.23;100.00
35519;BME280;21627;48.216;16.482;2023-09-08T01:50:11;100376.56;;;14.17;100.00
35519;BME280;21627;48.216;16.482;2023-09-08T01:52:38;100385.22;;;14.16;100.00
35519;BME280;21627;48.216;16.482;2023-09-08T01:55:05;100380.06;;;14.14;100.00
35519;BME280;21627;48.216;16.482;2023-09-08T01:57:34;100391.31;;;14.16;100.00
35519;BME280;21627;48.216;16.482;2023-09-08T02:00:01;100379.19;;;14.12;100.00
35519;BME280;21627;48.216;16.482;2023-09-08T02:02:28;100390.47;;;14.11;100.00
35519;BME280;21627;48.216;16.482;2023-09-08T02:04:55;100390.47;;;14.08;100.00
35519;BME280;21627;48.216;16.482;2023-09-08T02:07:23;100393.06;;;14.05;100.00
35519;BME280;21627;48.216;16.482;2023-09-08T02:09:50;100392.25;;;14.01;100.00
35519;BME280;21627;48.216;16.482;2023-09-08T02:12:17;100399.19;;;13.99;100.00
35519;BME280;21627;48.216;16.482;2023-09-08T02:14:44;100396.56;;;13.99;100.00
35519;BME280;21627;48.216;16.482;2023-09-08T02:17:11;100398.31;;;13.99;100.00
35519;BME280;21627;48.216;16.482;2023-09-08T02:19:38;100391.38;;;13.93;100.00
35519;BME280;21627;48.216;16.482;2023-09-08T02:22:06;100386.19;;;13.90;100.00
35519;BME280;21627;48.216;16.482;2023-09-08T02:24:33;100399.19;;;13.93;100.00
35519;BME280;21627;48.216;16.482;2023-09-08T02:27:00;100391.41;;;13.87;100.00
35519;BME280;21627;48.216;16.482;2023-09-08T02:29:27;100396.63;;;13.89;100.00
35519;BME280;21627;48.216;16.482;2023-09-08T02:31:54;100391.41;;;13.85;100.00
35519;BME280;21627;48.216;16.482;2023-09-08T02:34:21;100387.09;;;13.81;100.00
35519;BME280;21627;48.216;16.482;2023-09-08T02:36:48;100384.50;;;13.80;100.00
35519;BME280;21627;48.216;16.482;2023-09-08T02:39:17;100391.44;;;13.81;100.00
35519;BME280;21627;48.216;16.482;2023-09-08T02:41:45;100388.84;;;13.78;100.00
35519;BME280;21627;48.216;16.482;2023-09-08T02:44:13;100381.03;;;13.73;100.00
35519;BME280;21627;48.216;16.482;2023-09-08T02:46:40;100393.19;;;13.74;100.00
35519;BME280;21627;48.216;16.482;2023-09-08T02:49:07;100386.25;;;13.73;100.00
35519;BME280;21627;48.216;16.482;2023-09-08T02:51:34;100371.56;;;13.66;100.00
35519;BME280;21627;48.216;16.482;2023-09-08T02:54:01;100384.53;;;13.68;100.00
35519;BME280;21627;48.216;16.482;2023-09-08T02:56:28;100377.59;;;13.70;100.00
35519;BME280;21627;48.216;16.482;2023-09-08T02:58:55;100379.34;;;13.66;100.00
35519;BME280;21627;48.216;16.482;2023-09-08T03:01:22;100374.13;;;13.68;100.00
35519;BME280;21627;48.216;16.482;2023-09-08T03:03:49;100381.06;;;13.67;100.00
35519;BME280;21627;48.216;16.482;2023-09-08T03:06:19;100388.84;;;13.66;100.00
35519;BME280;21627;48.216;16.482;2023-09-08T03:08:47;100378.50;;;13.64;100.00
35519;BME280;21627;48.216;16.482;2023-09-08T03:11:14;100375.03;;;13.62;100.00
35519;BME280;21627;48.216;16.482;2023-09-08T03:13:41;100380.22;;;13.63;100.00
35519;BME280;21627;48.216;16.482;2023-09-08T03:16:09;100377.63;;;13.59;100.00
35519;BME280;21627;48.216;16.482;2023-09-08T03:18:36;100382.81;;;13.62;100.00
35519;BME280;21627;48.216;16.482;2023-09-08T03:21:05;100375.88;;;13.58;100.00
35519;BME280;21627;48.216;16.482;2023-09-08T03:23:44;100382.81;;;13.57;100.00
35519;BME280;21627;48.216;16.482;2023-09-08T03:26:11;100387.16;;;13.57;100.00
35519;BME280;21627;48.216;16.482;2023-09-08T03:28:39;100388.03;;;13.53;100.00
35519;BME280;21627;48.216;16.482;2023-09-08T03:31:06;100384.59;;;13.49;100.00
35519;BME280;21627;48.216;16.482;2023-09-08T03:33:33;100379.38;;;13.45;100.00
35519;BME280;21627;48.216;16.482;2023-09-08T03:36:02;100390.63;;;13.45;100.00
35519;BME280;21627;48.216;16.482;2023-09-08T03:38:29;100387.19;;;13.41;100.00
35519;BME280;21627;48.216;16.482;2023-09-08T03:40:56;100382.84;;;13.40;100.00
35519;BME280;21627;48.216;16.482;2023-09-08T03:43:23;100378.56;;;13.33;100.00
35519;BME280;21627;48.216;16.482;2023-09-08T03:45:50;100385.44;;;13.33;100.00
35519;BME280;21627;48.216;16.482;2023-09-08T03:48:18;100383.72;;;13.26;100.00
35519;BME280;21627;48.216;16.482;2023-09-08T03:50:45;100380.28;;;13.27;100.00
35519;BME280;21627;48.216;16.482;2023-09-08T03:53:13;100388.91;;;13.23;100.00
35519;BME280;21627;48.216;16.482;2023-09-08T03:55:40;100382.84;;;13.19;100.00
35519;BME280;21627;48.216;16.482;2023-09-08T03:58:07;100385.44;;;13.11;100.00
35519;BME280;21627;48.216;16.482;2023-09-08T04:00:35;100388.03;;;13.10;100.00
35519;BME280;21627;48.216;16.482;2023-09-08T04:03:03;100384.59;;;13.06;100.00
35519;BME280;21627;48.216;16.482;2023-09-08T04:05:30;100388.03;;;13.10;100.00
35519;BME280;21627;48.216;16.482;2023-09-08T04:07:57;100388.91;;;13.09;100.00
35519;BME280;21627;48.216;16.482;2023-09-08T04:10:25;100382.88;;;13.08;100.00
35519;BME280;21627;48.216;16.482;2023-09-08T04:12:52;100388.03;;;13.05;100.00
35519;BME280;21627;48.216;16.482;2023-09-08T04:15:19;100384.56;;;13.05;100.00
35519;BME280;21627;48.216;16.482;2023-09-08T04:17:46;100391.50;;;13.03;100.00
35519;BME280;21627;48.216;16.482;2023-09-08T04:20:13;100386.31;;;12.98;100.00
35519;BME280;21627;48.216;16.482;2023-09-08T04:22:44;100400.16;;;13.02;100.00
35519;BME280;21627;48.216;16.482;2023-09-08T04:25:11;100390.66;;;12.96;100.00
35519;BME280;21627;48.216;16.482;2023-09-08T04:27:38;100405.34;;;13.00;100.00
35519;BME280;21627;48.216;16.482;2023-09-08T04:30:07;100411.41;;;12.99;100.00
35519;BME280;21627;48.216;16.482;2023-09-08T04:32:34;100382.00;;;12.91;100.00
35519;BME280;21627;48.216;16.482;2023-09-08T04:35:02;100411.38;;;12.97;100.00
35519;BME280;21627;48.216;16.482;2023-09-08T04:37:29;100411.38;;;12.97;100.00
35519;BME280;21627;48.216;16.482;2023-09-08T04:39:57;100418.34;;;12.98;100.00
35519;BME280;21627;48.216;16.482;2023-09-08T04:42:24;100407.94;;;12.94;100.00
35519;BME280;21627;48.216;16.482;2023-09-08T04:44:52;100413.16;;;12.95;100.00
35519;BME280;21627;48.216;16.482;2023-09-08T04:47:20;100397.56;;;12.88;100.00
35519;BME280;21627;48.216;16.482;2023-09-08T04:49:47;100414.88;;;12.93;100.00
35519;BME280;21627;48.216;16.482;2023-09-08T04:52:14;100408.81;;;12.94;100.00
35519;BME280;21627;48.216;16.482;2023-09-08T04:54:41;100424.41;;;13.01;100.00
35519;BME280;21627;48.216;16.482;2023-09-08T04:57:08;100423.53;;;13.02;100.00
35519;BME280;21627;48.216;16.482;2023-09-08T04:59:49;100418.31;;;13.00;100.00
35519;BME280;21627;48.216;16.482;2023-09-08T05:02:16;100423.50;;;13.05;100.00
35519;BME280;21627;48.216;16.482;2023-09-08T05:04:45;100427.00;;;13.08;100.00
35519;BME280;21627;48.216;16.482;2023-09-08T05:07:12;100433.06;;;13.09;100.00
35519;BME280;21627;48.216;16.482;2023-09-08T05:09:40;100431.28;;;13.08;100.00
35519;BME280;21627;48.216;16.482;2023-09-08T05:12:07;100428.69;;;13.08;100.00
35519;BME280;21627;48.216;16.482;2023-09-08T05:14:35;100437.38;;;13.11;100.00
35519;BME280;21627;48.216;16.482;2023-09-08T05:17:02;100424.41;;;13.16;100.00
35519;BME280;21627;48.216;16.482;2023-09-08T05:19:30;100422.69;;;13.18;100.00
35519;BME280;21627;48.216;16.482;2023-09-08T05:21:57;100423.53;;;13.26;100.00
35519;BME280;21627;48.216;16.482;2023-09-08T05:24:24;100424.44;;;13.27;100.00
35519;BME280;21627;48.216;16.482;2023-09-08T05:26:53;100427.88;;;13.32;100.00
35519;BME280;21627;48.216;16.482;2023-09-08T05:29:20;100422.69;;;13.30;100.00
35519;BME280;21627;48.216;16.482;2023-09-08T05:31:47;100431.34;;;13.38;100.00
35519;BME280;21627;48.216;16.482;2023-09-08T05:34:14;100433.94;;;13.41;100.00
35519;BME280;21627;48.216;16.482;2023-09-08T05:36:41;100436.53;;;13.46;100.00
35519;BME280;21627;48.216;16.482;2023-09-08T05:39:09;100440.84;;;13.50;100.00
35519;BME280;21627;48.216;16.482;2023-09-08T05:41:37;100446.94;;;13.54;100.00
35519;BME280;21627;48.216;16.482;2023-09-08T05:44:04;100443.44;;;13.58;100.00
35519;BME280;21627;48.216;16.482;2023-09-08T05:46:31;100438.25;;;13.64;100.00
35519;BME280;21627;48.216;16.482;2023-09-08T05:48:59;100442.56;;;13.70;100.00
35519;BME280;21627;48.216;16.482;2023-09-08T05:51:26;100447.75;;;13.77;100.00
35519;BME280;21627;48.216;16.482;2023-09-08T05:53:53;100430.41;;;13.82;100.00
35519;BME280;21627;48.216;16.482;2023-09-08T05:56:20;100448.59;;;13.92;100.00
35519;BME280;21627;48.216;16.482;2023-09-08T05:58:47;100445.97;;;14.02;100.00
35519;BME280;21627;48.216;16.482;2023-09-08T06:01:15;100443.31;;;14.13;100.00
35519;BME280;21627;48.216;16.482;2023-09-08T06:03:45;100441.56;;;14.20;100.00
35519;BME280;21627;48.216;16.482;2023-09-08T06:06:12;100444.97;;;14.31;100.00
35519;BME280;21627;48.216;16.482;2023-09-08T06:08:40;100443.22;;;14.39;100.00
35519;BME280;21627;48.216;16.482;2023-09-08T06:11:07;100442.34;;;14.46;100.00
35519;BME280;21627;48.216;16.482;2023-09-08T06:13:34;100442.28;;;14.60;100.00
35519;BME280;21627;48.216;16.482;2023-09-08T06:16:01;100449.16;;;14.72;100.00
35519;BME280;21627;48.216;16.482;2023-09-08T06:18:29;100445.63;;;14.82;100.00
35519;BME280;21627;48.216;16.482;2023-09-08T06:20:57;100425.63;;;14.86;100.00
35519;BME280;21627;48.216;16.482;2023-09-08T06:23:25;100435.91;;;15.04;100.00
35519;BME280;21627;48.216;16.482;2023-09-08T06:25:56;100434.09;;;15.15;100.00
35519;BME280;21627;48.216;16.482;2023-09-08T06:28:28;100433.97;;;15.29;100.00
35519;BME280;21627;48.216;16.482;2023-09-08T06:30:55;100436.50;;;15.40;100.00
35519;BME280;21627;48.216;16.482;2023-09-08T06:33:22;100434.66;;;15.51;100.00
35519;BME280;21627;48.216;16.482;2023-09-08T06:35:50;100440.56;;;15.69;100.00
35519;BME280;21627;48.216;16.482;2023-09-08T06:38:18;100426.59;;;15.81;100.00
35519;BME280;21627;48.216;16.482;2023-09-08T06:40:45;100430.75;;;15.97;100.00
35519;BME280;21627;48.216;16.482;2023-09-08T06:43:12;100436.69;;;16.10;100.00
35519;BME280;21627;48.216;16.482;2023-09-08T06:45:39;100428.84;;;16.13;100.00
35519;BME280;21627;48.216;16.482;2023-09-08T06:48:09;100432.16;;;16.26;100.00
35519;BME280;21627;48.216;16.482;2023-09-08T06:50:36;100424.25;;;16.30;100.00
35519;BME280;21627;48.216;16.482;2023-09-08T06:53:04;100437.09;;;16.49;100.00
35519;BME280;21627;48.216;16.482;2023-09-08T06:55:31;100427.41;;;16.57;100.00
35519;BME280;21627;48.216;16.482;2023-09-08T06:57:58;100437.56;;;16.75;100.00
35519;BME280;21627;48.216;16.482;2023-09-08T07:00:26;100433.97;;;16.87;100.00
35519;BME280;21627;48.216;16.482;2023-09-08T07:02:53;100431.06;;;17.05;100.00
35519;BME280;21627;48.216;16.482;2023-09-08T07:05:20;100428.25;;;17.19;100.00
35519;BME280;21627;48.216;16.482;2023-09-08T07:07:47;100430.53;;;17.38;100.00
35519;BME280;21627;48.216;16.482;2023-09-08T07:10:15;100427.72;;;17.48;100.00
35519;BME280;21627;48.216;16.482;2023-09-08T07:12:42;100433.56;;;17.64;100.00
35519;BME280;21627;48.216;16.482;2023-09-08T07:15:09;100434.16;;;17.82;100.00
35519;BME280;21627;48.216;16.482;2023-09-08T07:17:37;100424.34;;;17.91;100.00
35519;BME280;21627;48.216;16.482;2023-09-08T07:20:05;100425.84;;;18.05;100.00
35519;BME280;21627;48.216;16.482;2023-09-08T07:22:32;100429.09;;;18.16;100.00
35519;BME280;21627;48.216;16.482;2023-09-08T07:24:59;100430.63;;;18.28;100.00
35519;BME280;21627;48.216;16.482;2023-09-08T07:27:26;100433.75;;;18.44;100.00
35519;BME280;21627;48.216;16.482;2023-09-08T07:29:54;100432.56;;;18.58;100.00
35519;BME280;21627;48.216;16.482;2023-09-08T07:32:21;100432.22;;;18.74;100.00
35519;BME280;21627;48.216;16.482;2023-09-08T07:34:49;100418.91;;;18.85;100.00
35519;BME280;21627;48.216;16.482;2023-09-08T07:37:22;100430.84;;;18.98;100.00
35519;BME280;21627;48.216;16.482;2023-09-08T07:39:50;100433.97;;;19.12;100.00
35519;BME280;21627;48.216;16.482;2023-09-08T07:42:18;100430.09;;;19.29;100.00
35519;BME280;21627;48.216;16.482;2023-09-08T07:44:45;100425.31;;;19.44;100.00
35519;BME280;21627;48.216;16.482;2023-09-08T07:47:12;100424.16;;;19.55;100.00
35519;BME280;21627;48.216;16.482;2023-09-08T07:49:46;100429.03;;;19.70;100.00
35519;BME280;21627;48.216;16.482;2023-09-08T07:52:16;100418.28;;;19.81;100.00
35519;BME280;21627;48.216;16.482;2023-09-08T07:54:43;100423.97;;;19.95;100.00
35519;BME280;21627;48.216;16.482;2023-09-08T07:57:10;100431.16;;;20.20;100.00
35519;BME280;21627;48.216;16.482;2023-09-08T07:59:37;100431.66;;;20.32;100.00
35519;BME280;21627;48.216;16.482;2023-09-08T08:02:04;100437.38;;;20.47;100.00
35519;BME280;21627;48.216;16.482;2023-09-08T08:04:31;100424.81;;;20.58;100.00
35519;BME280;21627;48.216;16.482;2023-09-08T08:06:58;100431.31;;;20.74;100.00
35519;BME280;21627;48.216;16.482;2023-09-08T08:09:26;100429.03;;;20.92;98.38
35519;BME280;21627;48.216;16.482;2023-09-08T08:11:53;100432.00;;;21.08;97.26
35519;BME280;21627;48.216;16.482;2023-09-08T08:14:20;100424.56;;;21.21;97.67
35519;BME280;21627;48.216;16.482;2023-09-08T08:16:47;100419.72;;;21.35;96.83
35519;BME280;21627;48.216;16.482;2023-09-08T08:19:14;100417.59;;;21.46;96.71
35519;BME280;21627;48.216;16.482;2023-09-08T08:21:41;100419.00;;;21.56;94.51
35519;BME280;21627;48.216;16.482;2023-09-08T08:24:09;100413.19;;;21.72;91.50
35519;BME280;21627;48.216;16.482;2023-09-08T08:26:37;100414.81;;;21.76;92.09
35519;BME280;21627;48.216;16.482;2023-09-08T08:29:04;100416.78;;;21.94;91.63
35519;BME280;21627;48.216;16.482;2023-09-08T08:31:31;100399.81;;;22.03;90.46
35519;BME280;21627;48.216;16.482;2023-09-08T08:34:00;100414.22;;;22.16;89.52
35519;BME280;21627;48.216;16.482;2023-09-08T08:36:27;100406.41;;;22.38;84.93
35519;BME280;21627;48.216;16.482;2023-09-08T08:38:54;100400.59;;;22.52;83.43
35519;BME280;21627;48.216;16.482;2023-09-08T08:41:21;100403.72;;;22.62;84.33
35519;BME280;21627;48.216;16.482;2023-09-08T08:43:48;100395.31;;;22.74;83.30
35519;BME280;21627;48.216;16.482;2023-09-08T08:46:18;100403.66;;;22.85;82.54
35519;BME280;21627;48.216;16.482;2023-09-08T08:48:45;100401.69;;;22.90;83.45
35519;BME280;21627;48.216;16.482;2023-09-08T08:51:13;100402.56;;;23.13;79.04
35519;BME280;21627;48.216;16.482;2023-09-08T08:53:42;100399.53;;;23.22;75.52
35519;BME280;21627;48.216;16.482;2023-09-08T08:56:10;100400.94;;;23.31;77.74
35519;BME280;21627;48.216;16.482;2023-09-08T08:58:39;100410.25;;;23.40;76.44
35519;BME280;21627;48.216;16.482;2023-09-08T09:01:07;100400.16;;;23.49;76.38
35519;BME280;21627;48.216;16.482;2023-09-08T09:03:38;100399.53;;;23.63;75.46
35519;BME280;21627;48.216;16.482;2023-09-08T09:06:06;100398.28;;;23.72;73.01
35519;BME280;21627;48.216;16.482;2023-09-08T09:08:35;100394.06;;;23.88;73.81
35519;BME280;21627;48.216;16.482;2023-09-08T09:11:04;100399.00;;;23.96;72.13
35519;BME280;21627;48.216;16.482;2023-09-08T09:13:31;100400.38;;;24.05;71.82
35519;BME280;21627;48.216;16.482;2023-09-08T09:15:59;100401.72;;;24.13;73.05
35519;BME280;21627;48.216;16.482;2023-09-08T09:18:27;100395.09;;;24.24;72.16
35519;BME280;21627;48.216;16.482;2023-09-08T09:21:00;100386.16;;;24.26;71.16
35519;BME280;21627;48.216;16.482;2023-09-08T09:23:33;100394.19;;;24.25;70.38
35519;BME280;21627;48.216;16.482;2023-09-08T09:26:03;100405.09;;;24.36;69.67
35519;BME280;21627;48.216;16.482;2023-09-08T09:28:34;100392.34;;;24.46;69.39
35519;BME280;21627;48.216;16.482;2023-09-08T09:31:01;100390.22;;;24.71;68.64
35519;BME280;21627;48.216;16.482;2023-09-08T09:33:30;100390.31;;;24.70;68.33
35519;BME280;21627;48.216;16.482;2023-09-08T09:35:57;100386.59;;;24.74;69.58
35519;BME280;21627;48.216;16.482;2023-09-08T09:38:27;100382.50;;;24.86;69.32
35519;BME280;21627;48.216;16.482;2023-09-08T09:40:55;100385.31;;;25.00;66.76
35519;BME280;21627;48.216;16.482;2023-09-08T09:43:22;100372.56;;;25.08;66.67
35519;BME280;21627;48.216;16.482;2023-09-08T09:45:50;100376.38;;;25.20;64.86
35519;BME280;21627;48.216;16.482;2023-09-08T09:48:22;100377.94;;;25.41;64.09
35519;BME280;21627;48.216;16.482;2023-09-08T09:50:51;100377.59;;;25.47;63.24
35519;BME280;21627;48.216;16.482;2023-09-08T09:53:20;100383.38;;;25.56;63.88
35519;BME280;21627;48.216;16.482;2023-09-08T09:55:49;100378.38;;;25.67;62.21
35519;BME280;21627;48.216;16.482;2023-09-08T09:58:18;100379.09;;;25.71;63.58
35519;BME280;21627;48.216;16.482;2023-09-08T10:00:48;100374.47;;;25.74;62.40
35519;BME280;21627;48.216;16.482;2023-09-08T10:03:18;100368.31;;;25.74;61.75
35519;BME280;21627;48.216;16.482;2023-09-08T10:05:47;100378.97;;;25.89;60.12
35519;BME280;21627;48.216;16.482;2023-09-08T10:08:16;100380.78;;;26.05;59.80
35519;BME280;21627;48.216;16.482;2023-09-08T10:10:46;100370.28;;;26.03;60.82
35519;BME280;21627;48.216;16.482;2023-09-08T10:13:21;100373.19;;;26.15;61.65
35519;BME280;21627;48.216;16.482;2023-09-08T10:15:51;100357.97;;;26.18;60.03
35519;BME280;21627;48.216;16.482;2023-09-08T10:18:19;100356.53;;;26.28;58.55
35519;BME280;21627;48.216;16.482;2023-09-08T10:20:48;100354.13;;;26.40;57.68
35519;BME280;21627;48.216;16.482;2023-09-08T10:23:41;100354.47;;;26.49;59.50
35519;BME280;21627;48.216;16.482;2023-09-08T10:26:11;100349.88;;;26.53;55.20
35519;BME280;21627;48.216;16.482;2023-09-08T10:28:38;100355.63;;;26.61;55.70
35519;BME280;21627;48.216;16.482;2023-09-08T10:31:07;100354.56;;;26.80;57.16
35519;BME280;21627;48.216;16.482;2023-09-08T10:33:36;100350.50;;;26.88;55.96
35519;BME280;21627;48.216;16.482;2023-09-08T10:36:04;100351.78;;;26.97;55.08
35519;BME280;21627;48.216;16.482;2023-09-08T10:38:34;100355.09;;;27.01;53.54
35519;BME280;21627;48.216;16.482;2023-09-08T10:43:56;100344.78;;;27.10;52.93
35519;BME280;21627;48.216;16.482;2023-09-08T10:46:27;100328.44;;;27.18;52.35
35519;BME280;21627;48.216;16.482;2023-09-08T10:49:00;100341.63;;;27.34;51.03
35519;BME280;21627;48.216;16.482;2023-09-08T10:51:29;100333.38;;;27.38;52.81
35519;BME280;21627;48.216;16.482;2023-09-08T10:53:56;100323.13;;;27.47;51.48
35519;BME280;21627;48.216;16.482;2023-09-08T10:56:56;100340.53;;;27.52;50.31
35519;BME280;21627;48.216;16.482;2023-09-08T10:59:34;100344.22;;;27.64;49.59
35519;BME280;21627;48.216;16.482;2023-09-08T11:02:05;100333.66;;;27.77;49.39
35519;BME280;21627;48.216;16.482;2023-09-08T11:04:34;100339.59;;;27.82;48.69
35519;BME280;21627;48.216;16.482;2023-09-08T11:07:02;100332.09;;;27.89;47.55
35519;BME280;21627;48.216;16.482;2023-09-08T11:09:36;100334.47;;;27.93;48.94
35519;BME280;21627;48.216;16.482;2023-09-08T11:12:05;100332.94;;;27.89;47.65
35519;BME280;21627;48.216;16.482;2023-09-08T11:14:32;100329.44;;;27.89;47.20
35519;BME280;21627;48.216;16.482;2023-09-08T11:17:03;100327.47;;;27.92;48.04
35519;BME280;21627;48.216;16.482;2023-09-08T11:19:47;100321.66;;;28.00;47.88
35519;BME280;21627;48.216;16.482;2023-09-08T11:22:18;100325.22;;;28.13;47.89
35519;BME280;21627;48.216;16.482;2023-09-08T11:24:45;100328.09;;;28.10;46.83
35519;BME280;21627;48.216;16.482;2023-09-08T11:27:13;100334.38;;;28.36;43.78
35519;BME280;21627;48.216;16.482;2023-09-08T11:29:41;100324.78;;;28.48;44.71
35519;BME280;21627;48.216;16.482;2023-09-08T11:32:08;100325.84;;;28.45;45.48
35519;BME280;21627;48.216;16.482;2023-09-08T11:34:36;100320.81;;;28.68;42.83
35519;BME280;21627;48.216;16.482;2023-09-08T11:37:15;100318.28;;;28.92;46.03
35519;BME280;21627;48.216;16.482;2023-09-08T11:39:45;100321.94;;;29.04;43.09
35519;BME280;21627;48.216;16.482;2023-09-08T11:42:15;100323.94;;;29.00;43.79
35519;BME280;21627;48.216;16.482;2023-09-08T11:44:42;100316.38;;;28.94;43.21
35519;BME280;21627;48.216;16.482;2023-09-08T11:47:10;100310.75;;;28.99;44.11
35519;BME280;21627;48.216;16.482;2023-09-08T11:49:42;100313.88;;;29.05;43.55
35519;BME280;21627;48.216;16.482;2023-09-08T11:52:10;100301.31;;;29.07;43.96
35519;BME280;21627;48.216;16.482;2023-09-08T11:54:38;100298.56;;;29.22;43.69
35519;BME280;21627;48.216;16.482;2023-09-08T11:57:21;100295.34;;;29.29;42.53
35519;BME280;21627;48.216;16.482;2023-09-08T11:59:50;100296.63;;;29.37;42.74
35519;BME280;21627;48.216;16.482;2023-09-08T12:02:18;100300.25;;;29.48;44.20
35519;BME280;21627;48.216;16.482;2023-09-08T12:04:45;100295.88;;;29.60;42.27
35519;BME280;21627;48.216;16.482;2023-09-08T12:07:13;100302.69;;;29.64;40.72
35519;BME280;21627;48.216;16.482;2023-09-08T12:09:43;100294.28;;;29.70;39.02
35519;BME280;21627;48.216;16.482;2023-09-08T12:12:12;100298.94;;;29.92;40.61
35519;BME280;21627;48.216;16.482;2023-09-08T12:14:43;100297.47;;;30.12;41.10
35519;BME280;21627;48.216;16.482;2023-09-08T12:17:13;100294.34;;;30.18;40.69
35519;BME280;21627;48.216;16.482;2023-09-08T12:19:44;100285.47;;;30.31;39.53
35519;BME280;21627;48.216;16.482;2023-09-08T12:22:11;100283.66;;;30.55;39.79
35519;BME280;21627;48.216;16.482;2023-09-08T12:24:56;100279.09;;;30.69;35.89
35519;BME280;21627;48.216;16.482;2023-09-08T12:27:24;100275.91;;;30.63;34.80
35519;BME280;21627;48.216;16.482;2023-09-08T12:29:56;100275.00;;;30.76;34.40
35519;BME280;21627;48.216;16.482;2023-09-08T12:32:39;100272.41;;;30.87;36.42
35519;BME280;21627;48.216;16.482;2023-09-08T12:35:07;100271.31;;;31.01;36.10
35519;BME280;21627;48.216;16.482;2023-09-08T12:37:34;100266.09;;;30.99;35.55
35519;BME280;21627;48.216;16.482;2023-09-08T12:40:02;100271.09;;;31.26;35.04
35519;BME280;21627;48.216;16.482;2023-09-08T12:42:30;100276.13;;;31.54;33.04
35519;BME280;21627;48.216;16.482;2023-09-08T12:45:01;100268.34;;;31.62;33.66